GOBD Airport Information

Runway Information
Airport Frequencies
Airport Navaids
Airport Weather Information & NOTAM
ADDS - METARS form results

(0859 UTC 29 January 2020)
Data provider http://aviationweather.gov/metar/data/
 
METAR text: GOBD 290830Z 36012KT 8000 NSC 21/16 Q1013 NOSIG
Conditions at: GOBD (DAKAR/DIAGNE , SN) observed 0830 UTC 29 January 2020
Temperature: 21.0°C (70°F)
Dewpoint: 16.0°C (61°F) [RH = 73%]
Pressure (altimeter): 29.91 inches Hg (1013.0 mb)
Winds: from the N (360 degrees) at 14 MPH (12 knots; 6.2 m/s)
Visibility: 5 miles ( 8 km)
Ceiling: at least 12,000 feet AGL
Clouds: sky clear below 12,000 feet AGL
Weather: no significant weather observed at this time

METAR text: GOBD 290800Z 36010KT 8000 NSC 20/16 Q1013 NOSIG
Conditions at: GOBD (DAKAR/DIAGNE , SN) observed 0800 UTC 29 January 2020
Temperature: 20.0°C (68°F)
Dewpoint: 16.0°C (61°F) [RH = 78%]
Pressure (altimeter): 29.91 inches Hg (1013.0 mb)
Winds: from the N (360 degrees) at 12 MPH (10 knots; 5.1 m/s)
Visibility: 5 miles ( 8 km)
Ceiling: at least 12,000 feet AGL
Clouds: sky clear below 12,000 feet AGL
Weather: no significant weather observed at this time

Forecast for: COR
Text: TAF COR GOBD 290530Z 2906/3012 36008KT 8000 NSC
Forecast period: 0600 UTC 29 January 2020 to 1200 UTC 30 January 2020
Forecast type: FROM: standard forecast or significant change
Winds: from the N (360 degrees) at 9 MPH (8 knots; 4.1 m/s)
Visibility: 5 miles (8 km)
Ceiling: unknown
Clouds: missing
Weather: no significant weather forecast for this period